Flight Track Log - Related Links

Times and Time Zones

All times are in EDT time to prevent confusion due to time zone crossing. See the SWA1130 flight status page for this flight to view local times or setup timezone preferences in your user account.


Time Position Orientation Groundspeed Altitude Reporting Facility
EDT Latitude Longitude Course Direction KTS MPH feet Rate Location/Type
Mon 06:10:00 AM 42.9500 -71.4167 36° Northeast 155 178 1,100  Level KA90
Mon 06:10:28 AM 42.9667 -71.4000 36° Northeast 184 212 1,800 1,676 Climbing KA90
Mon 06:11:08 AM 42.9958 -71.3842 22° Northeast 220 253 3,000 2,880 Climbing Boston Center
Mon 06:12:08 AM 43.0389 -71.3125 51° Northeast 235 270 6,600 3,600 Climbing Boston Center
Mon 06:13:08 AM 43.0481 -71.2097 83° East 250 288 10,200 3,400 Climbing Boston Center
Mon 06:14:08 AM 43.0617 -71.1103 79° East 286 329 13,400 3,150 Climbing Boston Center
Mon 06:15:08 AM 43.0622 -70.9822 90° East 301 346 16,500 2,250 Climbing Boston Center
Mon 06:16:08 AM 43.0028 -70.9042 136° Southeast 291 335 17,900 1,350 Climbing Boston Center
Mon 06:17:08 AM 42.9194 -70.9147 185° South 296 341 19,200 2,100 Climbing Boston Center
Mon 06:18:08 AM 42.8306 -70.9567 199° South 309 356 22,100 2,850 Climbing Boston Center
Mon 06:19:08 AM 42.7436 -71.0039 202° Southwest 320 368 24,900 2,450 Climbing Boston Center
Mon 06:20:08 AM 42.6906 -71.1039 234° Southwest 320 368 27,000 2,050 Climbing Boston Center
Mon 06:21:08 AM 42.6397 -71.2125 238° Southwest 327 376 29,000 1,700 Climbing Boston Center
Mon 06:22:08 AM 42.5908 -71.3233 239° Southwest 338 389 30,400 1,550 Climbing Boston Center
Mon 06:23:08 AM 42.5419 -71.4314 238° Southwest 348 400 32,100 1,550 Climbing Boston Center
Mon 06:24:08 AM 42.4783 -71.5561 235° Southwest 355 409 33,500 950 Climbing Boston Center
Mon 06:25:08 AM 42.4250 -71.6722 238° Southwest 360 414 34,000 250 Climbing Boston Center
Mon 06:26:08 AM 42.3714 -71.7853 237° Southwest 365 420 34,000  Level Boston Center
Mon 06:27:08 AM 42.3158 -71.9039 238° Southwest 371 427 34,000  Level Boston Center
Mon 06:28:08 AM 42.2600 -72.0194 237° Southwest 371 427 34,000  Level Boston Center
Mon 06:29:08 AM 42.2061 -72.1375 238° Southwest 371 427 34,000  Level Boston Center
Mon 06:30:08 AM 42.1503 -72.2525 237° Southwest 371 427 34,000  Level Boston Center
Mon 06:31:08 AM 42.0961 -72.3672 238° Southwest 371 427 34,000  Level Boston Center
Mon 06:32:20 AM 42.0397 -72.4847 237° Southwest 371 427 34,000  Level Boston Center
Mon 06:33:20 AM 41.9708 -72.6272 237° Southwest 371 427 34,000  Level Boston Center
Mon 06:34:20 AM 41.9081 -72.7331 231° Southwest 366 421 34,000  Level Boston Center
Mon 06:35:20 AM 41.8350 -72.8303 225° Southwest 376 433 34,000 -150 Level Boston Center
Mon 06:36:20 AM 41.7700 -72.9244 227° Southwest 382 440 33,700 -650 Descending Boston Center
Mon 06:37:20 AM 41.6967 -73.0239 225° Southwest 382 440 32,700 -900 Descending Boston Center
Mon 06:38:20 AM 41.6419 -73.0983 225° Southwest 376 433 31,900 -950 Descending Boston Center
Mon 06:39:20 AM 41.5619 -73.2086 226° Southwest 363 418 30,800 -1,100 Descending Boston Center
Mon 06:40:20 AM 41.4883 -73.3047 224° Southwest 345 397 29,700 -1,050 Descending Boston Center
Mon 06:41:20 AM 41.4211 -73.3950 225° Southwest 345 397 28,700 -1,000 Descending Boston Center
Mon 06:42:20 AM 41.3492 -73.4936 226° Southwest 355 409 27,700 -929 Descending Boston Center
Mon 06:43:55 AM 41.2542 -73.6303 227° Southwest 350 403 26,300 -667 Descending New York Center
Mon 06:44:53 AM 41.1953 -73.7297 232° Southwest 350 403 26,000 -151 Descending New York Center
Mon 06:45:54 AM 41.1344 -73.8317 232° Southwest 350 403 26,000  Level New York Center
Mon 06:46:55 AM 41.0756 -73.9308 232° Southwest 350 403 26,000  Level New York Center
Mon 06:47:53 AM 41.0100 -74.0433 232° Southwest 356 410 26,000  Level New York Center
Mon 06:48:53 AM 40.9489 -74.1419 231° Southwest 356 410 26,000  Level New York Center
Mon 06:49:54 AM 40.8922 -74.2297 230° Southwest 362 417 26,000  Level New York Center
Mon 06:50:55 AM 40.8331 -74.3308 232° Southwest 362 417 26,000  Level New York Center
Mon 06:51:53 AM 40.7717 -74.4292 231° Southwest 362 417 26,000 -101 Level New York Center
Mon 06:52:54 AM 40.7122 -74.5272 231° Southwest 362 417 25,800 -590 Descending New York Center
Mon 06:53:55 AM 40.6550 -74.6253 232° Southwest 362 417 24,800 -1,008 Descending New York Center
Mon 06:54:53 AM 40.5933 -74.7203 229° Southwest 356 410 23,800 -1,008 Descending New York Center
Mon 06:55:54 AM 40.5342 -74.8125 230° Southwest 350 403 22,800 -992 Descending New York Center
Mon 06:56:54 AM 40.4706 -74.9042 228° Southwest 345 397 21,800 -1,008 Descending New York Center
Mon 06:57:53 AM 40.4069 -74.9931 227° Southwest 345 397 20,800 -1,000 Descending New York Center
Mon 06:58:54 AM 40.3411 -75.0817 226° Southwest 345 397 19,800 -1,033 Descending New York Center
Mon 06:59:55 AM 40.2731 -75.1781 227° Southwest 340 391 18,700 -900 Descending New York Center
Mon 07:00:54 AM 40.2158 -75.2586 227° Southwest 334 384 18,000 -353 Descending New York Center
Mon 07:01:54 AM 40.1542 -75.3442 227° Southwest 334 384 18,000  Level New York Center
Mon 07:02:55 AM 40.0858 -75.4375 226° Southwest 334 384 18,000  Level New York Center
Mon 07:03:54 AM 40.0219 -75.5225 226° Southwest 334 384 18,000 -203 Level New York Center
Mon 07:04:53 AM 39.9622 -75.6106 229° Southwest 334 384 17,600 -750 Descending New York Center
Mon 07:05:54 AM 39.9042 -75.6986 229° Southwest 334 384 16,500 -992 Descending New York Center
Mon 07:06:54 AM 39.8522 -75.7950 235° Southwest 334 384 15,600 -1,073 Descending New York Center
Mon 07:08:00 AM 39.7831 -75.9004 237° Southwest  Level FlightAware Approximate
Mon 07:10:00 AM 39.7000 -76.0833 270° West 303 349 12,100  Level Potomac TRACON
Mon 07:11:00 AM 39.6264 -76.1661 226° Southwest  Level Estimated
Mon 07:13:00 AM 39.5500 -76.2833 270° West 254 292 9,300  Level Potomac TRACON
Mon 07:14:00 AM 39.4739 -76.3620 207° Southwest  Level Estimated
Mon 07:15:00 AM 39.3333 -76.5029 270° West  Level FlightAware Approximate
Mon 07:15:00 AM 39.4333 -76.4000 207° Southwest 262 302 7,300  Level Potomac TRACON
Mon 07:15:55 AM 39.3833 -76.4500 218° Southwest 265 305 5,800 -1,200 Descending Potomac TRACON
Mon 07:16:55 AM 39.3000 -76.4667 189° South 269 310 5,000 -1,000 Descending Potomac TRACON
Mon 07:18:00 AM 39.1667 -76.6667 270° West  Level FlightAware Approximate
Mon 07:18:01 AM 39.2333 -76.5000 201° Southwest 260 299 3,700  Level Potomac TRACON
Mon 07:18:55 AM 39.1667 -76.5333 201° Southwest 246 283 2,700 -789 Descending Potomac TRACON
Mon 07:19:55 AM 39.1167 -76.5667 207° Southwest 203 234 2,200 -632 Descending Potomac TRACON
Mon 07:20:49 AM 39.1000 -76.6000 237° Southwest 169 194 1,500 -737 Descending Potomac TRACON
Mon 07:21:49 AM 39.1333 -76.6333 322° Northwest 142 163 800 -700 Descending Potomac TRACON
Mon 07:23:00 AM 39.1667 -76.6667 270° West  Level FlightAware Approximate

Login

Don't have an account? Register now (free) for customized features, flight alerts, and more!